createdAt,value
2018-11-07T00:02:00.785Z,5.10
2018-11-07T00:04:28.552Z,5.43
2018-11-07T00:06:56.357Z,5.50
2018-11-07T00:09:24.145Z,5.03
2018-11-07T00:11:52.028Z,5.27
2018-11-07T00:14:19.818Z,5.77
2018-11-07T00:16:48.392Z,5.33
2018-11-07T00:19:16.256Z,6.03
2018-11-07T00:21:44.022Z,6.00
2018-11-07T00:24:11.824Z,6.07
2018-11-07T00:26:39.656Z,5.73
2018-11-07T00:29:07.647Z,5.93
2018-11-07T00:31:35.413Z,5.83
2018-11-07T00:34:03.213Z,5.73
2018-11-07T00:36:31.361Z,5.80
2018-11-07T00:38:59.137Z,5.77
2018-11-07T00:41:26.893Z,6.27
2018-11-07T00:43:54.694Z,5.17
2018-11-07T00:46:22.489Z,5.67
2018-11-07T00:48:50.260Z,5.13
2018-11-07T00:51:18.105Z,5.50
2018-11-07T00:53:45.916Z,5.27
2018-11-07T00:56:13.737Z,4.93
2018-11-07T00:58:41.509Z,5.63
2018-11-07T01:01:09.385Z,5.47
2018-11-07T01:03:37.249Z,5.33
2018-11-07T01:06:05.046Z,5.57
2018-11-07T01:08:32.820Z,5.20
2018-11-07T01:11:00.637Z,5.63
2018-11-07T01:13:28.427Z,5.27
2018-11-07T01:15:56.219Z,5.70
2018-11-07T01:18:24.021Z,5.53
2018-11-07T01:20:51.838Z,6.23
2018-11-07T01:23:19.651Z,5.93
2018-11-07T01:25:47.421Z,5.67
2018-11-07T01:28:15.321Z,5.77
2018-11-07T01:30:43.122Z,5.30
2018-11-07T01:33:10.917Z,5.77
2018-11-07T01:35:38.816Z,5.80
2018-11-07T01:38:06.682Z,5.90
2018-11-07T01:40:34.469Z,6.40
2018-11-07T01:43:02.316Z,6.13
2018-11-07T01:45:30.154Z,6.57
2018-11-07T01:47:58.160Z,6.37
2018-11-07T01:50:25.976Z,5.70
2018-11-07T01:52:53.779Z,5.80
2018-11-07T01:55:21.617Z,6.07
2018-11-07T01:57:49.479Z,6.13
2018-11-07T02:00:17.326Z,6.03
2018-11-07T02:02:45.141Z,6.33
2018-11-07T02:05:13.344Z,6.13
2018-11-07T02:07:41.648Z,6.83
2018-11-07T02:10:10.044Z,6.70
2018-11-07T02:12:38.117Z,6.20
2018-11-07T02:15:06.527Z,6.80
2018-11-07T02:17:34.348Z,6.00
2018-11-07T02:20:02.225Z,6.10
2018-11-07T02:22:30.216Z,6.40
2018-11-07T02:24:58.068Z,5.90
2018-11-07T02:27:25.971Z,6.47
2018-11-07T02:29:53.782Z,6.20
2018-11-07T02:32:21.594Z,6.63
2018-11-07T02:34:49.410Z,6.73
2018-11-07T02:37:17.205Z,6.77
2018-11-07T02:39:45.001Z,6.57
2018-11-07T02:42:12.765Z,6.60
2018-11-07T02:44:40.615Z,7.07
2018-11-07T02:47:08.415Z,6.70
2018-11-07T02:49:36.217Z,6.60
2018-11-07T02:52:04.184Z,6.70
2018-11-07T02:54:32.049Z,6.10
2018-11-07T02:56:59.865Z,7.10
2018-11-07T02:59:27.877Z,6.70
2018-11-07T03:01:55.685Z,6.77
2018-11-07T03:04:23.550Z,7.23
2018-11-07T03:06:51.333Z,6.53
2018-11-07T03:09:19.098Z,6.53
2018-11-07T03:11:46.881Z,7.50
2018-11-07T03:14:14.754Z,7.20
2018-11-07T03:16:42.549Z,6.90
2018-11-07T03:19:10.331Z,6.97
2018-11-07T03:21:38.753Z,6.60
2018-11-07T03:24:06.608Z,7.23
2018-11-07T03:26:34.393Z,6.67
2018-11-07T03:29:02.165Z,6.80
2018-11-07T03:31:30.003Z,6.60
2018-11-07T03:33:58.170Z,6.67
2018-11-07T03:36:25.936Z,7.07
2018-11-07T03:38:53.761Z,7.33
2018-11-07T03:41:21.565Z,6.87
2018-11-07T03:43:49.373Z,6.67
2018-11-07T03:46:17.833Z,7.03
2018-11-07T03:48:45.613Z,7.57
2018-11-07T03:51:13.402Z,6.70
2018-11-07T03:53:41.244Z,6.80
2018-11-07T03:56:09.057Z,6.90
2018-11-07T03:58:36.868Z,6.93
2018-11-07T04:01:04.765Z,6.93
2018-11-07T04:03:32.537Z,6.80
2018-11-07T04:06:00.378Z,6.40
2018-11-07T04:08:28.195Z,7.60
2018-11-07T04:10:56.018Z,6.83
2018-11-07T04:13:23.792Z,6.20
2018-11-07T04:15:51.584Z,7.10
2018-11-07T04:18:19.392Z,6.30
2018-11-07T04:20:47.199Z,6.90
2018-11-07T04:23:15.234Z,6.77
2018-11-07T04:25:43.013Z,7.03
2018-11-07T04:28:10.773Z,7.37
2018-11-07T04:30:38.560Z,6.77
2018-11-07T04:33:06.366Z,6.43
2018-11-07T04:35:34.233Z,6.13
2018-11-07T04:38:02.084Z,6.60
2018-11-07T04:40:30.033Z,6.17
2018-11-07T04:42:57.853Z,6.40
2018-11-07T04:45:25.668Z,6.63
2018-11-07T04:47:53.505Z,7.30
2018-11-07T04:50:21.276Z,6.70
2018-11-07T04:52:49.692Z,7.27
2018-11-07T04:55:17.518Z,7.60
2018-11-07T04:57:45.361Z,8.17
2018-11-07T05:00:13.285Z,8.23
2018-11-07T05:02:42.266Z,7.13
2018-11-07T05:05:10.208Z,6.87
2018-11-07T05:07:37.972Z,7.40
2018-11-07T05:10:07.168Z,7.40
2018-11-07T05:12:34.950Z,6.83
2018-11-07T05:15:02.782Z,7.00
2018-11-07T05:17:30.576Z,6.60
2018-11-07T05:19:58.829Z,6.90
2018-11-07T05:22:26.605Z,7.10
2018-11-07T05:24:54.598Z,6.67
2018-11-07T05:27:22.392Z,6.83
2018-11-07T05:29:50.752Z,7.27
2018-11-07T05:32:18.550Z,7.23
2018-11-07T05:34:46.385Z,7.10
2018-11-07T05:37:14.192Z,7.23
2018-11-07T05:39:41.985Z,6.67
2018-11-07T05:42:09.820Z,6.93
2018-11-07T05:44:37.641Z,6.83
2018-11-07T05:47:05.557Z,6.83
2018-11-07T05:49:33.387Z,6.97
2018-11-07T05:52:01.320Z,6.60
2018-11-07T05:54:29.464Z,6.70
2018-11-07T05:56:57.335Z,7.03
2018-11-07T05:59:25.112Z,6.97
2018-11-07T06:01:52.897Z,6.53
2018-11-07T06:04:20.661Z,6.53
2018-11-07T06:06:48.460Z,7.23
2018-11-07T06:09:16.310Z,7.70
2018-11-07T06:11:44.073Z,6.70
2018-11-07T06:14:11.845Z,6.57
2018-11-07T06:16:39.686Z,7.10
2018-11-07T06:19:07.477Z,7.27
2018-11-07T06:21:35.294Z,7.20
2018-11-07T06:24:03.093Z,7.00
2018-11-07T06:26:30.913Z,6.97
2018-11-07T06:28:58.846Z,6.50
2018-11-07T06:31:26.626Z,6.53
2018-11-07T06:33:54.472Z,6.73
2018-11-07T06:36:22.292Z,6.67
2018-11-07T06:38:50.969Z,6.97
2018-11-07T06:41:18.801Z,6.83
2018-11-07T06:43:47.138Z,6.50
2018-11-07T06:46:14.949Z,6.47
2018-11-07T06:48:43.674Z,6.17
2018-11-07T06:51:11.508Z,6.27
2018-11-07T06:53:39.386Z,6.07
2018-11-07T06:56:07.357Z,6.07
2018-11-07T06:58:35.129Z,6.00
2018-11-07T07:01:05.237Z,6.13
2018-11-07T07:03:35.248Z,6.20
2018-11-07T07:06:03.137Z,6.40
2018-11-07T07:08:31.061Z,6.30
2018-11-07T07:10:59.109Z,5.73
2018-11-07T07:13:28.044Z,6.67
2018-11-07T07:15:55.946Z,6.43
2018-11-07T07:18:23.711Z,7.00
2018-11-07T07:20:52.845Z,5.10
2018-11-07T07:23:21.002Z,5.70
2018-11-07T07:25:48.835Z,5.73
2018-11-07T07:28:16.624Z,5.67
2018-11-07T07:30:44.533Z,5.80
2018-11-07T07:33:12.788Z,5.87
2018-11-07T07:35:40.526Z,6.30
2018-11-07T07:38:08.354Z,6.80
2018-11-07T07:40:36.156Z,6.47
2018-11-07T07:43:04.332Z,6.97
2018-11-07T07:45:32.160Z,6.43
2018-11-07T07:48:00.020Z,7.00
2018-11-07T07:50:27.848Z,5.50
2018-11-07T07:52:55.668Z,9.10
2018-11-07T07:55:23.464Z,8.40
2018-11-07T07:57:51.253Z,9.10
2018-11-07T08:00:20.395Z,9.13
2018-11-07T08:02:50.189Z,10.00
2018-11-07T08:05:17.978Z,9.47
2018-11-07T08:07:46.506Z,9.77
2018-11-07T08:10:18.445Z,8.67
2018-11-07T08:12:46.716Z,6.80
2018-11-07T08:15:15.134Z,7.27
2018-11-07T08:17:43.533Z,6.00
2018-11-07T08:20:12.297Z,7.07
2018-11-07T08:22:40.501Z,6.40
2018-11-07T08:25:08.482Z,6.90
2018-11-07T08:27:36.421Z,6.53
2018-11-07T08:30:05.772Z,6.33
2018-11-07T08:32:33.601Z,5.60
2018-11-07T08:35:01.469Z,6.30
2018-11-07T08:37:29.329Z,5.70
2018-11-07T08:39:57.074Z,5.23
2018-11-07T08:42:25.623Z,5.10
2018-11-07T08:44:53.367Z,4.50
2018-11-07T08:47:21.194Z,5.53
2018-11-07T08:49:48.960Z,5.20
2018-11-07T08:52:16.757Z,5.93
2018-11-07T08:54:44.607Z,5.57
2018-11-07T08:57:12.373Z,6.07
2018-11-07T08:59:40.193Z,6.90
2018-11-07T09:02:08.092Z,6.50
2018-11-07T09:04:35.876Z,6.67
2018-11-07T09:07:04.137Z,7.63
2018-11-07T09:09:31.980Z,7.87
2018-11-07T09:12:00.139Z,7.60
2018-11-07T09:14:27.957Z,7.70
2018-11-07T09:16:55.771Z,7.60
2018-11-07T09:19:23.963Z,7.20
2018-11-07T09:21:51.857Z,6.87
2018-11-07T09:24:19.831Z,7.80
2018-11-07T09:26:47.656Z,8.07
2018-11-07T09:29:15.510Z,8.27
2018-11-07T09:31:43.280Z,8.80
2018-11-07T09:34:11.107Z,8.53
2018-11-07T09:36:38.877Z,8.80
2018-11-07T09:39:08.257Z,8.83
2018-11-07T09:41:36.062Z,8.67
2018-11-07T09:44:04.015Z,8.30
2018-11-07T09:46:31.940Z,7.70
2018-11-07T09:48:59.900Z,8.20
2018-11-07T09:51:28.129Z,8.60
2018-11-07T09:53:56.222Z,8.47
2018-11-07T09:56:24.004Z,8.80
2018-11-07T09:58:51.777Z,8.80
2018-11-07T10:01:19.629Z,9.57
2018-11-07T10:03:47.409Z,9.20
2018-11-07T10:06:15.201Z,9.00
2018-11-07T10:08:42.992Z,9.10
2018-11-07T10:11:10.757Z,10.47
2018-11-07T10:13:38.532Z,12.33
2018-11-07T10:16:06.333Z,11.13
2018-11-07T10:18:34.122Z,11.60
2018-11-07T10:21:01.981Z,11.30
2018-11-07T10:23:29.828Z,10.83
2018-11-07T10:25:57.621Z,11.13
2018-11-07T10:28:25.512Z,11.57
2018-11-07T10:30:53.221Z,10.63
2018-11-07T10:33:21.289Z,10.47
2018-11-07T10:35:49.078Z,10.33
2018-11-07T10:38:16.937Z,10.73
2018-11-07T10:40:44.725Z,12.70
2018-11-07T10:43:12.497Z,13.23
2018-11-07T10:45:40.399Z,13.37
2018-11-07T10:48:08.306Z,14.47
2018-11-07T10:50:36.117Z,14.07
2018-11-07T10:53:04.070Z,14.57
2018-11-07T10:55:31.890Z,14.90
2018-11-07T10:57:59.753Z,15.10
2018-11-07T11:00:33.137Z,14.57
2018-11-07T11:03:09.212Z,14.20
2018-11-07T11:05:38.105Z,13.87
2018-11-07T11:08:06.065Z,14.27
2018-11-07T11:10:33.901Z,13.87
2018-11-07T11:13:01.786Z,14.80
2018-11-07T11:15:29.649Z,14.40
2018-11-07T11:17:57.448Z,14.23
2018-11-07T11:20:25.265Z,14.43
2018-11-07T11:22:53.025Z,14.07
2018-11-07T11:25:20.845Z,13.17
2018-11-07T11:27:48.653Z,13.70
2018-11-07T11:30:16.465Z,12.90
2018-11-07T11:32:44.292Z,13.00
2018-11-07T11:35:12.233Z,13.17
2018-11-07T11:37:40.089Z,13.60
2018-11-07T11:40:10.209Z,13.50
2018-11-07T11:42:37.992Z,12.70
2018-11-07T11:45:07.089Z,13.60
2018-11-07T11:47:34.896Z,12.67
2018-11-07T11:50:03.100Z,12.77
2018-11-07T11:52:30.908Z,12.63
2018-11-07T11:54:58.709Z,12.60
2018-11-07T11:57:26.556Z,12.97
2018-11-07T11:59:54.638Z,12.93
2018-11-07T12:02:22.322Z,13.27
2018-11-07T12:04:50.079Z,13.30
2018-11-07T12:07:17.892Z,13.20
2018-11-07T12:09:45.742Z,12.87
2018-11-07T12:12:13.526Z,13.10
2018-11-07T12:14:41.386Z,12.87
2018-11-07T12:17:09.209Z,13.30
2018-11-07T12:19:37.026Z,12.50
2018-11-07T12:22:04.846Z,11.10
2018-11-07T12:24:32.732Z,11.50
2018-11-07T12:27:00.792Z,11.97
2018-11-07T12:29:28.550Z,11.95
2018-11-07T12:31:56.345Z,11.68
2018-11-07T12:34:24.121Z,11.33
2018-11-07T12:36:51.995Z,12.17
2018-11-07T12:39:19.782Z,12.00
2018-11-07T12:41:47.598Z,11.30
2018-11-07T12:44:15.479Z,12.37
2018-11-07T12:46:43.285Z,13.30
2018-11-07T12:49:11.101Z,12.77
2018-11-07T12:51:38.870Z,11.97
2018-11-07T12:54:06.681Z,12.03
2018-11-07T12:56:34.482Z,11.50
2018-11-07T12:59:02.795Z,12.23
2018-11-07T13:01:30.605Z,12.10
2018-11-07T13:03:58.882Z,11.33
2018-11-07T13:06:26.693Z,11.20
2018-11-07T13:08:54.485Z,10.68
2018-11-07T13:11:22.557Z,10.80
2018-11-07T13:13:50.308Z,11.60
2018-11-07T13:16:18.114Z,11.00
2018-11-07T13:18:45.908Z,10.70
2018-11-07T13:21:14.576Z,10.93
2018-11-07T13:23:42.351Z,10.85
2018-11-07T13:26:10.157Z,10.43
2018-11-07T13:28:38.041Z,10.98
2018-11-07T13:31:05.955Z,10.30
2018-11-07T13:33:33.929Z,10.10
2018-11-07T13:36:01.894Z,10.70
2018-11-07T13:38:29.918Z,10.60
2018-11-07T13:40:57.546Z,10.95
2018-11-07T13:43:25.324Z,11.18
2018-11-07T13:45:53.231Z,11.20
2018-11-07T13:48:20.921Z,11.03
2018-11-07T13:50:48.725Z,10.98
2018-11-07T13:53:16.557Z,11.08
2018-11-07T13:55:44.341Z,11.40
2018-11-07T13:58:12.181Z,11.40
2018-11-07T14:00:39.977Z,11.15
2018-11-07T14:03:07.799Z,10.78
2018-11-07T14:05:35.767Z,10.90
2018-11-07T14:08:03.465Z,10.70
2018-11-07T14:10:31.346Z,10.75
2018-11-07T14:12:59.197Z,11.93
2018-11-07T14:15:26.997Z,11.25
2018-11-07T14:17:54.795Z,11.75
2018-11-07T14:20:22.597Z,10.88
2018-11-07T14:22:50.918Z,10.60
2018-11-07T14:25:18.736Z,11.40
2018-11-07T14:27:46.789Z,11.28
2018-11-07T14:30:16.617Z,11.78
2018-11-07T14:32:50.164Z,11.95
2018-11-07T14:35:17.937Z,11.73
2018-11-07T14:37:46.081Z,12.55
2018-11-07T14:40:13.917Z,12.15
2018-11-07T14:42:41.769Z,12.33
2018-11-07T14:45:10.773Z,12.33
2018-11-07T14:47:38.977Z,11.53
2018-11-07T14:50:07.760Z,11.25
2018-11-07T14:52:35.767Z,12.37
2018-11-07T14:55:03.980Z,11.68
2018-11-07T14:57:32.518Z,11.05
2018-11-07T15:00:00.388Z,11.08
2018-11-07T15:02:28.157Z,11.83
2018-11-07T15:04:57.913Z,11.70
2018-11-07T15:07:25.737Z,11.53
2018-11-07T15:09:54.033Z,13.20
2018-11-07T15:12:21.776Z,12.20
2018-11-07T15:14:49.536Z,12.10
2018-11-07T15:17:17.392Z,13.50
2018-11-07T15:19:45.153Z,12.43
2018-11-07T15:22:12.935Z,13.13
2018-11-07T15:24:40.802Z,12.70
2018-11-07T15:27:08.660Z,13.40
2018-11-07T15:29:36.437Z,13.03
2018-11-07T15:32:04.607Z,13.53
2018-11-07T15:34:32.516Z,12.90
2018-11-07T15:37:00.285Z,13.87
2018-11-07T15:39:28.111Z,13.13
2018-11-07T15:41:55.888Z,14.30
2018-11-07T15:44:24.133Z,14.40
2018-11-07T15:46:51.949Z,15.33
2018-11-07T15:49:19.760Z,14.37
2018-11-07T15:51:52.087Z,14.70
2018-11-07T15:54:19.929Z,15.20
2018-11-07T15:56:50.960Z,15.30
2018-11-07T15:59:18.915Z,15.57
2018-11-07T16:01:46.669Z,15.53
2018-11-07T16:04:14.504Z,15.20
2018-11-07T16:06:42.733Z,16.83
2018-11-07T16:09:10.566Z,15.93
2018-11-07T16:11:38.389Z,16.00
2018-11-07T16:14:06.209Z,15.70
2018-11-07T16:16:34.212Z,15.83
2018-11-07T16:19:02.049Z,15.93
2018-11-07T16:21:29.995Z,16.53
2018-11-07T16:23:57.892Z,17.23
2018-11-07T16:26:25.603Z,43.00
2018-11-07T16:28:53.519Z,39.97
2018-11-07T16:31:21.294Z,36.77
2018-11-07T16:33:49.108Z,33.87
2018-11-07T16:36:16.932Z,29.87
2018-11-07T16:38:44.760Z,29.40
2018-11-07T16:41:12.596Z,24.13
2018-11-07T16:43:40.449Z,15.73
2018-11-07T16:46:08.617Z,16.50
2018-11-07T16:48:37.150Z,15.93
2018-11-07T16:51:05.093Z,15.27
2018-11-07T16:53:33.090Z,14.77
2018-11-07T16:56:00.861Z,13.33
2018-11-07T16:58:28.672Z,12.20
2018-11-07T17:00:56.440Z,12.00
2018-11-07T17:03:24.581Z,11.77
2018-11-07T17:05:52.384Z,11.63
2018-11-07T17:08:20.117Z,11.77
2018-11-07T17:10:47.889Z,11.97
2018-11-07T17:13:15.673Z,11.63
2018-11-07T17:15:43.514Z,11.87
2018-11-07T17:18:11.253Z,11.67
2018-11-07T17:20:39.069Z,11.33
2018-11-07T17:23:07.169Z,12.33
2018-11-07T17:25:35.121Z,12.13
2018-11-07T17:28:03.052Z,13.33
2018-11-07T17:30:32.138Z,13.87
2018-11-07T17:32:59.916Z,13.17
2018-11-07T17:35:28.185Z,14.43
2018-11-07T17:37:56.019Z,13.53
2018-11-07T17:40:23.929Z,13.73
2018-11-07T17:42:52.216Z,14.30
2018-11-07T17:45:20.888Z,13.50
2018-11-07T17:47:49.572Z,13.17
2018-11-07T17:50:18.181Z,12.80
2018-11-07T17:52:46.153Z,13.00
2018-11-07T17:55:14.876Z,12.80
2018-11-07T17:57:42.710Z,12.53
2018-11-07T18:00:12.834Z,12.70
2018-11-07T18:02:41.029Z,12.80
2018-11-07T18:05:08.936Z,12.67
2018-11-07T18:07:37.242Z,12.40
2018-11-07T18:10:06.600Z,12.17
2018-11-07T18:12:34.464Z,12.50
2018-11-07T18:15:02.333Z,12.47
2018-11-07T18:17:30.168Z,12.80
2018-11-07T18:19:57.942Z,15.67
2018-11-07T18:22:25.755Z,14.57
2018-11-07T18:24:53.801Z,18.83
2018-11-07T18:27:21.669Z,46.47
2018-11-07T18:29:49.549Z,19.87
2018-11-07T18:32:17.403Z,16.37
2018-11-07T18:34:45.180Z,15.63
2018-11-07T18:37:12.957Z,17.93
2018-11-07T18:39:40.831Z,15.80
2018-11-07T18:42:10.062Z,19.50
2018-11-07T18:44:39.076Z,20.63
2018-11-07T18:47:06.968Z,16.23
2018-11-07T18:49:35.576Z,16.30
2018-11-07T18:52:03.507Z,15.43
2018-11-07T18:54:31.646Z,15.20
2018-11-07T18:57:00.345Z,15.20
2018-11-07T18:59:28.856Z,15.03
2018-11-07T19:01:56.697Z,14.67
2018-11-07T19:04:25.193Z,14.47
2018-11-07T19:06:53.656Z,14.50
2018-11-07T19:09:22.534Z,15.20
2018-11-07T19:11:50.883Z,15.80
2018-11-07T19:14:19.605Z,16.73
2018-11-07T19:16:48.172Z,16.63
2018-11-07T19:19:16.611Z,16.60
2018-11-07T19:21:44.420Z,16.20
2018-11-07T19:24:12.245Z,17.47
2018-11-07T19:26:40.265Z,16.60
2018-11-07T19:29:07.956Z,15.87
2018-11-07T19:31:36.180Z,14.97
2018-11-07T19:34:04.265Z,14.27
2018-11-07T19:36:32.021Z,15.13
2018-11-07T19:38:59.905Z,14.60
2018-11-07T19:41:27.652Z,14.77
2018-11-07T19:43:55.433Z,13.27
2018-11-07T19:46:23.525Z,14.43
2018-11-07T19:48:51.574Z,15.57
2018-11-07T19:51:19.372Z,14.60
2018-11-07T19:53:47.204Z,15.33
2018-11-07T19:56:15.042Z,16.60
2018-11-07T19:58:42.876Z,15.23
2018-11-07T20:01:10.792Z,14.80
2018-11-07T20:03:38.688Z,14.77
2018-11-07T20:06:06.653Z,13.70
2018-11-07T20:08:34.518Z,13.57
2018-11-07T20:11:02.269Z,13.47
2018-11-07T20:13:30.645Z,13.90
2018-11-07T20:15:58.478Z,14.97
2018-11-07T20:18:26.232Z,13.80
2018-11-07T20:20:54.041Z,14.67
2018-11-07T20:23:21.870Z,15.17
2018-11-07T20:25:49.606Z,14.80
2018-11-07T20:28:17.444Z,14.63
2018-11-07T20:30:45.249Z,15.87
2018-11-07T20:33:13.125Z,14.67
2018-11-07T20:35:41.153Z,14.93
2018-11-07T20:38:09.040Z,15.77
2018-11-07T20:40:37.089Z,15.20
2018-11-07T20:43:05.552Z,17.33
2018-11-07T20:45:33.441Z,17.10
2018-11-07T20:48:01.196Z,16.00
2018-11-07T20:50:28.996Z,20.73
2018-11-07T20:52:56.968Z,16.67
2018-11-07T20:55:24.776Z,16.27
2018-11-07T20:57:52.645Z,18.57
2018-11-07T21:00:21.617Z,18.17
2018-11-07T21:02:49.574Z,18.80
2018-11-07T21:05:17.357Z,16.73
2018-11-07T21:07:45.145Z,16.37
2018-11-07T21:10:18.684Z,15.60
2018-11-07T21:12:46.785Z,16.80
2018-11-07T21:15:15.844Z,16.30
2018-11-07T21:17:44.828Z,26.47
2018-11-07T21:20:12.711Z,17.07
2018-11-07T21:22:40.996Z,15.43
2018-11-07T21:25:09.001Z,15.80
2018-11-07T21:27:36.911Z,17.30
2018-11-07T21:30:07.008Z,33.03
2018-11-07T21:32:35.118Z,18.17
2018-11-07T21:35:03.067Z,16.17
2018-11-07T21:37:30.894Z,16.63
2018-11-07T21:39:58.719Z,18.97
2018-11-07T21:42:26.524Z,25.67
2018-11-07T21:44:54.333Z,25.83
2018-11-07T21:47:22.145Z,22.10
2018-11-07T21:49:50.237Z,17.27
2018-11-07T21:52:18.048Z,16.80
2018-11-07T21:54:46.228Z,17.53
2018-11-07T21:57:14.177Z,17.93
2018-11-07T21:59:42.029Z,16.57
2018-11-07T22:02:09.936Z,18.63
2018-11-07T22:04:37.873Z,19.10
2018-11-07T22:07:06.130Z,15.97
2018-11-07T22:09:34.012Z,15.80
2018-11-07T22:12:01.912Z,16.37
2018-11-07T22:14:29.717Z,19.07
2018-11-07T22:16:57.496Z,20.77
2018-11-07T22:19:25.284Z,16.73
2018-11-07T22:21:53.074Z,16.33
2018-11-07T22:24:22.040Z,16.67
2018-11-07T22:26:49.805Z,16.80
2018-11-07T22:29:17.733Z,16.20
2018-11-07T22:31:46.968Z,16.23
2018-11-07T22:34:19.528Z,15.97
2018-11-07T22:36:47.562Z,16.97
2018-11-07T22:39:15.367Z,16.67
2018-11-07T22:41:43.864Z,19.40
2018-11-07T22:44:11.693Z,17.97
2018-11-07T22:46:39.534Z,16.33
2018-11-07T22:49:07.549Z,16.70
2018-11-07T22:51:35.756Z,17.63
2018-11-07T22:54:04.286Z,16.23
2018-11-07T22:56:32.217Z,17.50
2018-11-07T22:59:00.026Z,18.23
2018-11-07T23:01:33.538Z,18.93
2018-11-07T23:04:01.318Z,16.70
2018-11-07T23:06:29.139Z,16.70
2018-11-07T23:08:57.091Z,16.33
2018-11-07T23:11:24.874Z,16.23
2018-11-07T23:13:52.743Z,16.00
2018-11-07T23:16:20.639Z,16.33
2018-11-07T23:18:48.478Z,16.50
2018-11-07T23:21:16.294Z,16.20
2018-11-07T23:23:44.155Z,17.47
2018-11-07T23:26:13.311Z,17.30
2018-11-07T23:28:41.141Z,17.10
2018-11-07T23:31:09.116Z,16.70
2018-11-07T23:33:36.944Z,17.03
2018-11-07T23:36:04.816Z,18.53
2018-11-07T23:38:32.597Z,17.33
2018-11-07T23:41:00.356Z,16.83
2018-11-07T23:43:28.641Z,16.37
2018-11-07T23:45:56.408Z,16.87
2018-11-07T23:48:24.292Z,17.10
2018-11-07T23:50:52.088Z,17.27
2018-11-07T23:53:19.897Z,16.00
2018-11-07T23:55:47.666Z,17.17
2018-11-07T23:58:15.501Z,16.37
